Time;durP1;ratioP1;P1;durP2;ratioP2;P2;SDS_P1;SDS_P2;PMS_P1;PMS_P2;Temp;Humidity;BMP_temperature;BMP_pressure;BME280_temperature;BME280_humidity;BME280_pressure;Samples;Min_cycle;Max_cycle;Signal;HPM_P1;HPM_P2
2023/08/04 00:01:23;;;;;;;6.63;4.15;;;16.60;1.00;;;;;;5018111;28;20176;-75
2023/08/04 00:03:49;;;;;;;4.85;4.18;;;16.50;1.00;;;;;;5019188;28;20182;-76
2023/08/04 00:06:14;;;;;;;8.02;4.82;;;16.50;99.90;;;;;;5018909;28;21150;-75
2023/08/04 00:08:40;;;;;;;6.45;4.55;;;16.50;1.00;;;;;;5017996;28;20187;-76
2023/08/04 00:11:06;;;;;;;7.05;4.40;;;16.50;99.90;;;;;;5024240;28;20226;-75
2023/08/04 00:13:32;;;;;;;5.90;4.47;;;16.50;1.00;;;;;;5022783;28;20520;-75
2023/08/04 00:16:07;;;;;;;7.68;4.80;;;16.50;98.00;;;;;;5017437;28;20179;-75
2023/08/04 00:18:33;;;;;;;10.63;5.22;;;16.40;1.00;;;;;;5018881;28;20271;-75
2023/08/04 00:20:59;;;;;;;10.15;4.85;;;16.40;1.00;;;;;;5022424;28;20694;-75
2023/08/04 00:23:25;;;;;;;8.23;4.93;;;16.40;1.00;;;;;;5021022;28;20182;-75
2023/08/04 00:25:51;;;;;;;7.22;4.63;;;16.40;1.00;;;;;;5014612;28;20211;-75
2023/08/04 00:28:16;;;;;;;7.38;4.45;;;16.40;99.90;;;;;;5021665;28;20218;-75
2023/08/04 00:30:42;;;;;;;7.40;4.53;;;16.40;1.00;;;;;;5013182;28;20607;-75
2023/08/04 00:33:08;;;;;;;7.88;4.63;;;16.30;1.00;;;;;;5021272;28;20187;-75
2023/08/04 00:35:33;;;;;;;5.97;4.82;;;16.30;1.00;;;;;;5017752;28;20183;-75
2023/08/04 00:37:59;;;;;;;5.82;4.95;;;16.30;1.00;;;;;;5022116;28;20206;-77
2023/08/04 00:40:25;;;;;;;6.00;5.35;;;16.30;99.90;;;;;;5020886;28;20538;-76
2023/08/04 00:42:50;;;;;;;8.55;4.60;;;16.40;1.00;;;;;;5017641;28;20201;-75
2023/08/04 00:45:16;;;;;;;11.10;4.95;;;16.40;1.00;;;;;;5024491;28;20191;-75
2023/08/04 00:47:42;;;;;;;8.80;4.93;;;16.30;1.00;;;;;;5020061;28;20201;-76
2023/08/04 00:50:09;;;;;;;8.27;5.10;;;16.30;99.90;;;;;;5016836;28;20175;-75
2023/08/04 00:52:37;;;;;;;10.40;4.95;;;16.30;1.00;;;;;;5017747;28;20270;-76
2023/08/04 00:55:04;;;;;;;6.90;5.10;;;16.20;1.00;;;;;;5016650;28;20175;-75
2023/08/04 00:57:30;;;;;;;10.48;5.45;;;16.20;1.00;;;;;;5013514;28;20243;-75
2023/08/04 00:59:56;;;;;;;8.13;5.10;;;16.20;1.00;;;;;;5016861;28;20615;-75
2023/08/04 01:12:35;;;;;;;9.10;5.28;;;15.90;99.90;;;;;;5019348;28;20214;-75
2023/08/04 01:15:02;;;;;;;10.80;6.05;;;15.90;1.00;;;;;;5014293;28;20179;-75
2023/08/04 01:17:29;;;;;;;9.07;5.82;;;15.90;1.00;;;;;;5016939;28;20616;-76
2023/08/04 01:19:56;;;;;;;9.70;5.50;;;16.00;1.00;;;;;;5019467;28;20183;-75
2023/08/04 01:22:23;;;;;;;10.07;5.85;;;16.00;1.00;;;;;;5017494;28;20666;-75
2023/08/04 01:24:53;;;;;;;11.90;5.70;;;16.00;1.00;;;;;;5015660;28;20198;-73
2023/08/04 01:27:28;;;;;;;8.18;4.88;;;16.00;99.90;;;;;;5012912;28;20218;-75
2023/08/04 01:29:56;;;;;;;7.63;5.43;;;16.00;99.90;;;;;;5017894;28;20647;-76
2023/08/04 01:32:22;;;;;;;12.70;5.35;;;16.00;99.90;;;;;;5020024;28;20182;-76
2023/08/04 01:34:49;;;;;;;7.18;5.10;;;16.00;99.90;;;;;;5016170;28;20171;-75
2023/08/04 01:37:15;;;;;;;8.95;5.47;;;16.00;99.90;;;;;;5017076;28;20229;-75
2023/08/04 01:39:42;;;;;;;10.05;5.40;;;16.10;1.00;;;;;;5021065;28;20632;-75
2023/08/04 01:42:07;;;;;;;10.27;5.20;;;16.20;99.90;;;;;;5013566;28;20266;-75
2023/08/04 01:44:33;;;;;;;6.78;4.55;;;16.30;1.00;;;;;;5013053;28;20286;-76
2023/08/04 01:46:59;;;;;;;9.77;5.88;;;16.30;1.00;;;;;;5015874;28;20276;-75
2023/08/04 01:49:25;;;;;;;7.15;5.55;;;16.30;1.00;;;;;;5018589;28;20210;-76
2023/08/04 01:51:51;;;;;;;7.15;5.30;;;16.40;99.90;;;;;;5017081;28;20203;-75
2023/08/04 01:54:16;;;;;;;6.38;4.47;;;16.40;1.00;;;;;;5013872;28;20179;-76
2023/08/04 01:56:42;;;;;;;8.70;4.93;;;16.50;1.00;;;;;;5016103;28;20254;-76
2023/08/04 01:59:08;;;;;;;10.93;5.57;;;16.40;99.90;;;;;;5014430;28;20183;-75
2023/08/04 02:01:43;;;;;;;6.43;4.35;;;16.50;99.90;;;;;;5016933;28;20182;-75
2023/08/04 02:04:09;;;;;;;9.68;4.80;;;16.50;1.00;;;;;;5508103;22;20610;-76
2023/08/04 02:06:34;;;;;;;10.27;5.53;;;16.50;1.00;;;;;;5025358;28;20276;-76
2023/08/04 02:09:00;;;;;;;8.30;4.88;;;16.50;20.10;;;;;;5026621;28;20548;-76
2023/08/04 02:11:25;;;;;;;7.68;4.90;;;16.60;1.00;;;;;;5025883;28;20187;-76
2023/08/04 02:13:51;;;;;;;7.80;4.43;;;16.60;38.80;;;;;;5026810;28;20174;-76
2023/08/04 02:16:17;;;;;;;9.23;5.47;;;16.60;1.00;;;;;;5026317;28;20209;-76
2023/08/04 02:18:42;;;;;;;9.55;5.10;;;16.60;99.90;;;;;;5026881;28;20206;-75
2023/08/04 02:21:08;;;;;;;8.02;5.13;;;16.70;99.90;;;;;;5025879;28;20190;-75
2023/08/04 02:23:34;;;;;;;7.57;5.55;;;16.70;99.90;;;;;;5025890;28;20198;-76
2023/08/04 02:26:00;;;;;;;7.15;4.85;;;16.70;1.00;;;;;;5024179;28;20260;-76
2023/08/04 02:28:25;;;;;;;7.20;4.55;;;16.60;99.90;;;;;;5025812;28;20179;-76
2023/08/04 02:30:51;;;;;;;9.68;5.30;;;16.60;1.00;;;;;;5025354;28;20187;-76
2023/08/04 02:33:17;;;;;;;12.27;5.65;;;16.60;1.00;;;;;;5026440;28;20179;-76
2023/08/04 02:35:42;;;;;;;8.15;4.57;;;16.50;99.90;;;;;;5024128;28;20191;-76
2023/08/04 02:38:08;;;;;;;12.80;5.75;;;16.50;99.90;;;;;;5025753;28;20187;-76
2023/08/04 02:40:37;;;;;;;7.63;5.13;;;16.50;1.00;;;;;;5025940;28;20186;-75
2023/08/04 02:43:03;;;;;;;7.40;4.90;;;16.50;99.90;;;;;;5025536;28;20612;-75
2023/08/04 02:45:28;;;;;;;10.90;6.45;;;16.50;1.00;;;;;;5025181;28;20185;-76
2023/08/04 02:47:54;;;;;;;11.25;5.68;;;16.50;1.00;;;;;;5025572;28;20202;-75
2023/08/04 02:50:20;;;;;;;8.55;4.60;;;16.40;99.90;;;;;;5024622;28;20182;-75
2023/08/04 02:52:45;;;;;;;9.73;6.15;;;16.40;1.00;;;;;;5026047;28;20182;-75
2023/08/04 02:55:12;;;;;;;6.70;5.18;;;16.50;99.90;;;;;;5025296;28;20727;-76
2023/08/04 02:57:38;;;;;;;10.70;5.60;;;16.50;1.00;;;;;;5025392;28;20202;-76
2023/08/04 03:00:06;;;;;;;9.00;5.43;;;16.50;1.00;;;;;;5025308;28;20175;-76
2023/08/04 03:02:33;;;;;;;7.72;5.20;;;16.50;58.50;;;;;;5025668;28;20178;-77
2023/08/04 03:04:58;;;;;;;9.25;6.07;;;16.50;1.00;;;;;;5025253;28;20191;-75
2023/08/04 03:07:25;;;;;;;11.18;5.75;;;16.40;1.00;;;;;;5025106;28;20633;-76
2023/08/04 03:09:51;;;;;;;8.27;5.15;;;16.40;99.90;;;;;;5023406;28;20189;-76
2023/08/04 03:12:16;;;;;;;10.18;5.13;;;16.40;1.00;;;;;;5025803;28;20183;-76
2023/08/04 03:14:42;;;;;;;9.57;5.07;;;16.40;1.00;;;;;;5024465;28;20232;-76
2023/08/04 03:17:08;;;;;;;10.27;5.80;;;16.40;1.00;;;;;;5024672;28;20214;-76
2023/08/04 03:19:33;;;;;;;7.85;4.70;;;16.40;1.00;;;;;;5024602;28;20277;-75
2023/08/04 03:21:59;;;;;;;12.27;5.32;;;16.40;1.00;;;;;;5025017;28;20198;-76
2023/08/04 03:24:24;;;;;;;7.68;4.47;;;16.40;1.00;;;;;;5024634;28;20191;-76
2023/08/04 03:26:50;;;;;;;7.97;4.50;;;16.40;99.90;;;;;;5024444;28;20215;-76
2023/08/04 03:29:16;;;;;;;7.32;4.80;;;16.40;99.90;;;;;;5024901;28;20190;-75
2023/08/04 03:31:42;;;;;;;8.70;5.00;;;16.30;1.00;;;;;;5024166;28;20662;-76
2023/08/04 03:34:08;;;;;;;10.35;4.40;;;16.30;99.90;;;;;;5024616;28;20185;-76
2023/08/04 03:36:33;;;;;;;13.02;3.78;;;16.20;1.00;;;;;;5024570;28;20210;-76
2023/08/04 03:38:59;;;;;;;8.05;4.38;;;16.10;99.90;;;;;;5025121;28;20232;-76
2023/08/04 03:41:25;;;;;;;5.63;3.40;;;16.10;99.90;;;;;;5024479;28;20232;-76
2023/08/04 03:43:51;;;;;;;6.20;4.18;;;16.00;99.90;;;;;;5024860;28;20195;-76
2023/08/04 03:46:16;;;;;;;7.80;3.85;;;16.10;6.60;;;;;;5023571;28;20244;-77
2023/08/04 03:48:42;;;;;;;9.40;4.40;;;16.10;99.90;;;;;;5024285;28;20175;-75
2023/08/04 03:51:08;;;;;;;5.50;4.03;;;16.10;1.00;;;;;;5024543;28;20186;-76
2023/08/04 03:53:33;;;;;;;10.40;4.68;;;16.10;61.40;;;;;;5024627;28;20182;-75
2023/08/04 03:55:59;;;;;;;8.25;4.13;;;16.10;99.90;;;;;;5022562;28;20206;-76
2023/08/04 03:58:25;;;;;;;9.35;3.97;;;16.00;99.90;;;;;;5024325;28;20183;-75
2023/08/04 04:00:50;;;;;;;9.30;4.43;;;16.00;99.90;;;;;;5024973;28;20634;-76
2023/08/04 04:03:16;;;;;;;6.68;4.03;;;16.10;99.90;;;;;;5024908;28;20737;-75
2023/08/04 04:05:41;;;;;;;8.85;4.15;;;16.10;99.90;;;;;;5023151;28;20226;-76
2023/08/04 04:08:07;;;;;;;8.73;4.00;;;16.10;99.90;;;;;;5024633;28;20186;-76
2023/08/04 04:10:33;;;;;;;6.70;4.30;;;16.10;1.00;;;;;;5024717;28;20187;-76
2023/08/04 04:12:58;;;;;;;8.55;3.60;;;16.10;8.00;;;;;;5024295;28;20266;-76
2023/08/04 04:15:24;;;;;;;6.90;4.28;;;16.10;1.00;;;;;;5023729;28;20642;-76
2023/08/04 04:17:50;;;;;;;8.57;4.07;;;16.10;99.90;;;;;;5024200;28;20209;-76
2023/08/04 04:20:15;;;;;;;6.07;3.58;;;16.10;99.90;;;;;;5024586;28;20675;-75
2023/08/04 04:22:41;;;;;;;7.93;4.10;;;16.10;99.90;;;;;;5023469;28;20683;-76
2023/08/04 04:25:07;;;;;;;8.38;3.55;;;16.10;99.90;;;;;;5024462;28;20648;-76
2023/08/04 04:27:33;;;;;;;6.90;3.53;;;16.00;1.00;;;;;;5014049;28;20479;-75
2023/08/04 04:30:06;;;;;;;9.10;3.78;;;16.10;99.90;;;;;;5024214;28;20606;-76
2023/08/04 04:32:32;;;;;;;8.32;3.80;;;16.10;1.00;;;;;;5024100;28;20245;-76
2023/08/04 04:34:57;;;;;;;7.45;4.10;;;16.00;1.00;;;;;;5027780;28;20218;-77
2023/08/04 04:37:23;;;;;;;7.55;3.58;;;16.10;99.90;;;;;;5026970;28;20711;-76
2023/08/04 04:39:49;;;;;;;7.05;3.72;;;16.10;99.90;;;;;;5028192;28;20190;-75
2023/08/04 04:42:16;;;;;;;7.82;3.53;;;16.10;99.90;;;;;;5028146;28;20183;-76
2023/08/04 04:44:42;;;;;;;8.93;4.00;;;16.20;99.90;;;;;;5026524;28;20669;-76
2023/08/04 04:47:09;;;;;;;7.93;3.65;;;16.20;1.00;;;;;;5027545;28;20226;-76
2023/08/04 04:49:37;;;;;;;8.32;4.13;;;16.20;1.00;;;;;;5029955;28;20181;-75
2023/08/04 04:52:05;;;;;;;7.30;3.63;;;16.30;1.00;;;;;;5027591;28;20181;-76
2023/08/04 05:01:27;;;;;;;7.20;4.10;;;16.30;99.90;;;;;;5422506;22;20348;-76
2023/08/04 05:03:53;;;;;;;10.15;4.43;;;16.30;1.00;;;;;;5026633;28;20645;-76
2023/08/04 05:06:19;;;;;;;6.93;3.70;;;16.40;99.90;;;;;;5041755;28;20242;-76
2023/08/04 05:08:44;;;;;;;7.18;4.00;;;16.40;99.90;;;;;;5028076;28;20532;-75
2023/08/04 05:11:10;;;;;;;6.38;4.32;;;16.50;1.00;;;;;;5028214;28;20584;-74
2023/08/04 05:13:36;;;;;;;9.00;3.65;;;16.50;1.00;;;;;;5026846;28;20609;-77
2023/08/04 05:16:01;;;;;;;9.15;3.72;;;16.70;99.90;;;;;;5026545;28;20217;-76
2023/08/04 05:18:27;;;;;;;6.55;3.30;;;17.10;1.00;;;;;;5017215;28;20476;-76
2023/08/04 05:20:55;;;;;;;5.10;3.40;;;17.40;1.00;;;;;;5025582;28;20179;-76
2023/08/04 05:23:22;;;;;;;6.40;3.33;;;17.70;99.90;;;;;;5026315;28;20551;-76
2023/08/04 05:25:48;;;;;;;6.85;3.10;;;17.60;99.90;;;;;;5023183;28;20280;-77
2023/08/04 05:28:28;;;;;;;8.50;3.25;;;17.50;99.90;;;;;;5028639;28;20261;-76
2023/08/04 05:31:04;;;;;;;5.15;2.92;;;17.40;99.90;;;;;;5027884;28;20178;-76
2023/08/04 05:33:31;;;;;;;6.00;3.33;;;16.90;99.90;;;;;;5026552;28;20574;-77
2023/08/04 05:35:58;;;;;;;4.55;3.00;;;16.90;1.00;;;;;;5017197;28;20213;-77
2023/08/04 05:38:24;;;;;;;8.40;3.47;;;16.90;1.00;;;;;;5027824;28;20214;-76
2023/08/04 05:40:50;;;;;;;5.93;3.10;;;17.00;1.00;;;;;;5026239;28;20222;-76
2023/08/04 05:43:17;;;;;;;7.20;3.17;;;17.10;1.00;;;;;;5022267;28;20356;-76
2023/08/04 05:45:50;;;;;;;5.50;3.03;;;17.10;1.00;;;;;;5025158;28;20709;-76
2023/08/04 05:48:16;;;;;;;8.82;3.60;;;17.10;99.90;;;;;;5025199;28;20199;-76
2023/08/04 05:50:42;;;;;;;6.28;3.20;;;17.30;1.00;;;;;;5022883;28;20233;-77
2023/08/04 05:53:07;;;;;;;4.78;2.88;;;17.50;1.00;;;;;;5026719;28;20183;-76
2023/08/04 05:55:34;;;;;;;8.93;3.13;;;17.60;99.90;;;;;;5025190;28;20638;-76
2023/08/04 05:58:01;;;;;;;5.25;3.10;;;17.70;99.90;;;;;;5026787;28;20210;-73
2023/08/04 06:00:27;;;;;;;4.30;3.03;;;17.80;99.90;;;;;;5027248;28;20233;-76
2023/08/04 06:02:52;;;;;;;5.43;3.22;;;18.00;99.90;;;;;;5026991;28;20620;-77
2023/08/04 06:05:18;;;;;;;5.32;2.50;;;18.20;99.90;;;;;;5026026;28;20271;-76
2023/08/04 06:07:44;;;;;;;7.35;3.05;;;18.80;1.00;;;;;;5025819;28;20214;-75
2023/08/04 06:10:10;;;;;;;5.25;2.17;;;20.20;1.00;;;;;;5023561;28;20191;-76
2023/08/04 06:12:36;;;;;;;2.55;1.83;;;22.30;99.90;;;;;;5026797;28;20202;-75
2023/08/04 06:15:03;;;;;;;4.20;1.88;;;24.10;30.30;;;;;;5025476;28;20187;-76
2023/08/04 06:17:29;;;;;;;5.57;2.20;;;25.20;1.00;;;;;;5026498;28;20390;-76
2023/08/04 06:19:55;;;;;;;5.03;2.13;;;26.00;1.00;;;;;;5026351;28;21313;-76
2023/08/04 06:22:20;;;;;;;5.28;2.00;;;25.80;1.00;;;;;;5025935;28;20179;-76
2023/08/04 06:24:46;;;;;;;4.90;1.83;;;25.80;1.00;;;;;;5025446;28;20257;-76
2023/08/04 06:27:12;;;;;;;6.10;2.10;;;24.80;1.00;;;;;;5025003;28;20222;-77
2023/08/04 06:29:37;;;;;;;2.22;1.60;;;24.20;1.00;;;;;;5025732;28;20186;-77
2023/08/04 06:32:04;;;;;;;4.43;1.70;;;24.70;1.00;;;;;;5026078;28;20193;-76
2023/08/04 06:34:30;;;;;;;5.07;1.67;;;25.30;1.00;;;;;;5026839;28;20171;-76
2023/08/04 06:36:55;;;;;;;4.32;2.05;;;26.20;1.00;;;;;;5024964;28;20662;-77
2023/08/04 06:39:22;;;;;;;4.07;2.00;;;27.00;1.00;;;;;;5026435;28;20599;-74
2023/08/04 06:41:48;;;;;;;6.22;2.00;;;27.80;1.00;;;;;;5021875;28;20190;-76
2023/08/04 06:44:14;;;;;;;5.72;1.77;;;27.50;1.00;;;;;;5025947;28;20229;-76
2023/08/04 06:46:40;;;;;;;6.57;2.10;;;27.40;1.00;;;;;;5025260;28;20233;-74
2023/08/04 06:49:06;;;;;;;3.92;2.08;;;27.10;1.00;;;;;;5025225;28;20185;-75
2023/08/04 06:51:32;;;;;;;5.20;1.50;;;27.00;1.00;;;;;;5025196;28;20186;-75
2023/08/04 06:53:57;;;;;;;2.72;1.60;;;26.50;1.00;;;;;;5022442;28;20795;-74
2023/08/04 06:56:23;;;;;;;6.90;2.08;;;25.90;1.00;;;;;;5021875;28;20210;-74
2023/08/04 06:58:49;;;;;;;8.57;2.38;;;26.60;1.00;;;;;;5023720;28;20186;-75
2023/08/04 07:01:14;;;;;;;3.80;1.90;;;25.40;1.00;;;;;;5023358;28;20187;-73
2023/08/04 07:03:40;;;;;;;5.28;2.15;;;23.70;1.00;;;;;;5024644;28;20218;-75
2023/08/04 07:06:06;;;;;;;4.65;2.08;;;23.00;1.00;;;;;;5022652;28;20229;-74
2023/08/04 07:08:32;;;;;;;5.18;2.13;;;22.20;1.00;;;;;;5024462;28;20274;-75
2023/08/04 07:10:57;;;;;;;3.85;1.70;;;21.40;1.00;;;;;;5026989;28;20198;-74
2023/08/04 07:13:23;;;;;;;5.65;1.90;;;21.00;1.00;;;;;;5025601;28;20185;-74
2023/08/04 07:15:57;;;;;;;6.43;2.72;;;20.70;1.00;;;;;;5021078;28;20261;-74
2023/08/04 07:18:23;;;;;;;5.00;2.17;;;20.60;1.00;;;;;;5025055;28;20625;-74
2023/08/04 07:20:49;;;;;;;3.22;1.65;;;20.40;1.00;;;;;;5023764;28;20221;-76
2023/08/04 07:23:15;;;;;;;6.82;2.47;;;20.10;99.90;;;;;;5025727;28;21136;-76
2023/08/04 07:25:40;;;;;;;6.20;2.50;;;20.20;1.00;;;;;;5024617;28;20665;-78
2023/08/04 07:28:06;;;;;;;4.15;2.00;;;20.30;1.00;;;;;;5025340;28;20210;-75
2023/08/04 07:30:37;;;;;;;4.43;2.30;;;20.10;1.00;;;;;;5024901;28;20186;-75
2023/08/04 07:33:06;;;;;;;4.07;2.00;;;19.90;22.10;;;;;;5024547;28;20221;-75
2023/08/04 07:35:32;;;;;;;5.20;2.17;;;19.80;12.60;;;;;;5023259;28;20171;-76
2023/08/04 07:37:58;;;;;;;3.80;2.17;;;19.70;1.00;;;;;;5022577;28;20237;-77
2023/08/04 07:40:24;;;;;;;6.35;1.95;;;19.60;43.40;;;;;;5022538;28;20610;-77
2023/08/04 07:42:50;;;;;;;6.63;2.42;;;19.60;43.50;;;;;;5018941;28;20189;-75
2023/08/04 07:45:16;;;;;;;5.15;2.25;;;19.50;62.10;;;;;;5023832;28;20186;-77
2023/08/04 07:47:41;;;;;;;6.30;2.38;;;19.50;68.30;;;;;;5024851;28;20237;-76
2023/08/04 07:50:07;;;;;;;5.45;2.38;;;19.60;55.50;;;;;;5022897;28;20191;-75
2023/08/04 07:52:33;;;;;;;5.28;2.35;;;19.70;34.00;;;;;;5024554;28;20601;-76
2023/08/04 07:54:58;;;;;;;6.65;2.40;;;19.90;48.50;;;;;;5023865;28;20646;-75
2023/08/04 07:57:24;;;;;;;5.45;2.60;;;20.00;49.10;;;;;;5023583;28;20210;-75
2023/08/04 07:59:50;;;;;;;5.45;2.10;;;20.10;73.20;;;;;;5024579;28;20187;-75
2023/08/04 08:02:16;;;;;;;6.50;2.20;;;20.10;31.70;;;;;;5025124;28;20202;-75
2023/08/04 08:04:41;;;;;;;4.90;1.83;;;20.20;1.00;;;;;;5023365;28;20214;-76
2023/08/04 08:07:07;;;;;;;7.28;2.35;;;20.40;1.00;;;;;;5020288;28;20293;-76
2023/08/04 08:09:33;;;;;;;5.18;2.35;;;20.40;1.00;;;;;;5025297;28;20198;-75
2023/08/04 08:11:59;;;;;;;4.25;2.10;;;20.20;1.00;;;;;;5024781;28;20196;-75
2023/08/04 08:14:24;;;;;;;4.28;2.10;;;20.30;1.00;;;;;;5023987;28;20190;-75
2023/08/04 08:16:50;;;;;;;5.38;2.28;;;20.10;1.00;;;;;;5022953;28;20199;-75
2023/08/04 08:19:16;;;;;;;5.03;2.30;;;19.90;1.00;;;;;;5024034;28;20285;-75
2023/08/04 08:21:42;;;;;;;3.50;2.08;;;19.90;1.00;;;;;;5024288;28;20183;-76
2023/08/04 08:24:08;;;;;;;3.80;2.00;;;20.00;4.40;;;;;;5017768;28;20190;-76
2023/08/04 08:26:34;;;;;;;3.78;2.20;;;20.00;1.00;;;;;;5022774;28;20241;-76
2023/08/04 08:29:01;;;;;;;5.25;2.50;;;20.20;1.00;;;;;;5024548;28;20567;-76
2023/08/04 08:31:27;;;;;;;5.30;2.70;;;20.30;15.10;;;;;;5024339;28;20185;-74
2023/08/04 08:33:53;;;;;;;4.60;2.30;;;20.30;1.00;;;;;;5023417;28;20183;-75
2023/08/04 08:36:19;;;;;;;4.15;1.90;;;20.30;1.00;;;;;;5023113;28;20715;-77
2023/08/04 08:38:45;;;;;;;4.18;2.25;;;20.40;1.00;;;;;;5024176;28;20491;-75
2023/08/04 08:41:13;;;;;;;3.42;1.90;;;20.70;1.00;;;;;;5017595;28;20187;-76
2023/08/04 08:43:40;;;;;;;5.38;2.30;;;20.60;1.00;;;;;;5021725;28;20201;-75
2023/08/04 08:46:06;;;;;;;4.32;2.00;;;20.80;1.00;;;;;;5014833;28;20328;-76
2023/08/04 08:48:36;;;;;;;4.00;2.10;;;20.90;1.00;;;;;;5022418;28;20175;-75
2023/08/04 08:51:06;;;;;;;4.15;1.90;;;21.00;1.00;;;;;;5019877;28;20229;-76
2023/08/04 08:53:32;;;;;;;3.50;2.00;;;21.00;1.00;;;;;;5022033;28;20233;-75
2023/08/04 08:56:00;;;;;;;5.68;2.08;;;21.20;1.00;;;;;;5019671;28;20564;-76
2023/08/04 08:58:30;;;;;;;5.32;2.25;;;21.20;1.00;;;;;;5016561;28;20559;-76
2023/08/04 09:00:56;;;;;;;4.55;2.38;;;21.00;1.00;;;;;;5022684;28;20187;-75
2023/08/04 09:03:22;;;;;;;6.28;2.47;;;20.90;1.00;;;;;;5023918;28;20207;-76
2023/08/04 09:05:48;;;;;;;4.45;2.45;;;20.80;1.00;;;;;;5021350;28;20218;-75
2023/08/04 09:08:14;;;;;;;5.78;2.13;;;21.00;1.00;;;;;;5022731;28;20564;-75
2023/08/04 09:10:39;;;;;;;6.07;2.35;;;21.30;1.00;;;;;;5023894;28;20194;-76
2023/08/04 09:13:09;;;;;;;5.90;2.15;;;21.30;1.00;;;;;;5016759;28;20191;-76
2023/08/04 09:15:35;;;;;;;4.10;2.55;;;21.50;1.00;;;;;;5022702;28;20241;-78
2023/08/04 09:18:06;;;;;;;3.95;2.25;;;21.60;1.00;;;;;;5018548;28;20211;-75
2023/08/04 09:20:32;;;;;;;6.38;2.85;;;21.60;1.00;;;;;;5017332;28;20274;-75
2023/08/04 09:23:00;;;;;;;7.05;3.00;;;21.30;1.00;;;;;;5024081;28;20278;-75
2023/08/04 09:25:25;;;;;;;4.85;2.78;;;21.40;1.00;;;;;;5026766;28;20186;-76
2023/08/04 09:27:51;;;;;;;3.55;2.55;;;21.40;1.00;;;;;;5027610;28;20210;-76
2023/08/04 09:30:18;;;;;;;4.30;2.60;;;21.50;1.00;;;;;;5027016;28;20209;-75
2023/08/04 09:32:50;;;;;;;4.57;2.60;;;21.60;1.00;;;;;;5016502;28;20550;-76
2023/08/04 09:35:16;;;;;;;5.68;2.72;;;21.50;1.00;;;;;;5018711;28;20183;-78
2023/08/04 09:37:43;;;;;;;6.85;3.00;;;21.30;1.00;;;;;;5026568;28;20214;-75
2023/08/04 09:40:19;;;;;;;5.30;2.50;;;21.60;1.00;;;;;;5026707;28;20187;-75
2023/08/04 09:42:46;;;;;;;4.35;2.88;;;21.70;1.00;;;;;;5024805;28;20183;-76
2023/08/04 09:45:18;;;;;;;3.05;2.70;;;21.70;1.00;;;;;;5024193;28;20179;-76
2023/08/04 09:47:48;;;;;;;4.40;2.03;;;21.80;1.00;;;;;;5024985;28;20226;-75
2023/08/04 09:50:14;;;;;;;4.13;2.25;;;21.70;1.00;;;;;;5025165;28;20190;-75
2023/08/04 09:52:41;;;;;;;4.70;2.55;;;21.30;1.00;;;;;;5024647;28;20191;-75
2023/08/04 09:55:10;;;;;;;4.57;2.30;;;21.20;1.00;;;;;;5024590;28;20191;-75
2023/08/04 09:57:37;;;;;;;4.10;2.15;;;21.00;1.00;;;;;;5025116;28;20203;-75
2023/08/04 10:00:05;;;;;;;3.92;1.65;;;21.00;1.00;;;;;;5026768;28;20269;-75
2023/08/04 10:02:32;;;;;;;4.25;1.73;;;21.00;1.00;;;;;;5026559;28;20669;-74
2023/08/04 10:05:01;;;;;;;3.63;2.10;;;21.30;1.00;;;;;;5025350;28;20248;-75
2023/08/04 10:07:30;;;;;;;3.80;1.95;;;21.40;1.00;;;;;;5024840;28;20224;-75
2023/08/04 10:09:58;;;;;;;3.95;2.05;;;21.50;1.00;;;;;;5026251;28;20232;-74
2023/08/04 10:12:24;;;;;;;11.93;2.85;;;21.50;1.00;;;;;;5026960;28;20174;-76
2023/08/04 10:14:50;;;;;;;4.57;2.00;;;21.80;1.00;;;;;;5020208;28;20274;-76
2023/08/04 10:17:18;;;;;;;4.80;2.13;;;22.30;1.00;;;;;;5025729;28;20388;-75
2023/08/04 10:19:44;;;;;;;2.42;2.00;;;22.40;1.00;;;;;;5024924;28;20186;-75
2023/08/04 10:22:11;;;;;;;5.18;2.03;;;22.50;1.00;;;;;;5027201;28;20191;-74
2023/08/04 10:24:41;;;;;;;3.55;2.05;;;22.80;1.00;;;;;;5025441;28;20185;-76
2023/08/04 10:27:19;;;;;;;4.18;1.95;;;23.00;1.00;;;;;;5021548;28;20229;-74
2023/08/04 10:29:45;;;;;;;7.07;2.45;;;23.20;1.00;;;;;;5024418;28;20190;-73
2023/08/04 10:32:11;;;;;;;4.43;1.80;;;23.40;1.00;;;;;;5022102;28;20179;-77
2023/08/04 10:34:42;;;;;;;2.00;1.42;;;23.60;1.00;;;;;;5020545;28;20187;-73
2023/08/04 10:37:16;;;;;;;4.57;2.05;;;23.60;1.00;;;;;;5025103;28;20202;-73
2023/08/04 10:39:43;;;;;;;2.50;1.63;;;23.10;1.00;;;;;;5025949;28;20186;-75
2023/08/04 10:42:12;;;;;;;2.70;1.42;;;22.50;1.00;;;;;;5026136;28;20189;-74
2023/08/04 10:44:49;;;;;;;4.93;1.67;;;22.20;1.00;;;;;;5024700;28;20190;-75
2023/08/04 10:47:27;;;;;;;3.78;1.83;;;21.90;1.00;;;;;;5024243;28;20676;-74
2023/08/04 10:49:53;;;;;;;3.33;1.58;;;21.50;1.00;;;;;;5026591;28;20602;-75
2023/08/04 10:52:19;;;;;;;3.25;1.48;;;21.40;1.00;;;;;;5025385;28;20570;-74
2023/08/04 10:54:46;;;;;;;4.63;1.98;;;21.30;1.00;;;;;;5025104;28;20185;-74
2023/08/04 10:57:28;;;;;;;7.72;2.95;;;21.40;1.00;;;;;;5018529;28;20215;-74
2023/08/04 10:59:54;;;;;;;3.83;1.92;;;21.60;1.00;;;;;;5025652;28;20260;-75
2023/08/04 11:02:22;;;;;;;3.60;1.90;;;21.90;1.00;;;;;;5024944;28;20316;-77
2023/08/04 11:04:50;;;;;;;2.58;1.88;;;21.90;1.00;;;;;;5024124;28;20282;-77
2023/08/04 11:07:16;;;;;;;3.63;1.63;;;21.70;1.00;;;;;;5026164;28;20211;-76
2023/08/04 11:09:45;;;;;;;5.05;1.73;;;21.80;1.00;;;;;;5025314;28;20207;-76
2023/08/04 11:12:12;;;;;;;2.83;1.40;;;22.20;1.00;;;;;;5025342;28;20221;-77
2023/08/04 11:14:40;;;;;;;4.20;2.00;;;22.50;1.00;;;;;;5023807;28;20229;-76
2023/08/04 11:17:20;;;;;;;2.58;1.45;;;22.70;1.00;;;;;;5020336;28;20210;-75
2023/08/04 11:19:50;;;;;;;2.92;1.42;;;23.00;1.00;;;;;;5025206;28;20759;-75
2023/08/04 11:22:17;;;;;;;6.47;1.77;;;23.10;1.00;;;;;;5023542;28;20543;-74
2023/08/04 11:24:44;;;;;;;3.25;1.42;;;23.00;1.00;;;;;;5025219;28;20196;-75
2023/08/04 11:27:12;;;;;;;3.97;1.50;;;22.70;1.00;;;;;;5024309;28;20246;-74
2023/08/04 11:29:39;;;;;;;1.95;1.35;;;22.60;1.00;;;;;;5024167;28;20257;-75
2023/08/04 11:32:17;;;;;;;2.22;1.10;;;22.60;1.00;;;;;;5023560;28;20179;-74
2023/08/04 11:34:43;;;;;;;1.98;1.10;;;22.40;1.00;;;;;;5024550;28;20248;-74
2023/08/04 11:37:09;;;;;;;2.55;1.15;;;22.30;1.00;;;;;;5024878;28;20214;-75
2023/08/04 11:39:37;;;;;;;2.47;1.33;;;22.30;1.00;;;;;;5024279;28;20187;-76
2023/08/04 11:42:12;;;;;;;2.97;1.63;;;22.30;1.00;;;;;;5024842;28;20650;-74
2023/08/04 11:44:42;;;;;;;3.17;1.75;;;22.30;1.00;;;;;;5026107;28;20739;-75
2023/08/04 11:47:13;;;;;;;5.82;2.17;;;22.40;1.00;;;;;;5025395;28;20225;-73
2023/08/04 11:49:40;;;;;;;3.28;1.80;;;22.40;1.00;;;;;;5024179;28;20187;-73
2023/08/04 11:52:09;;;;;;;2.25;1.83;;;22.50;1.00;;;;;;5022948;28;20190;-74
2023/08/04 11:54:35;;;;;;;2.70;1.83;;;22.30;1.00;;;;;;5022754;28;20187;-73
2023/08/04 11:57:01;;;;;;;3.10;1.90;;;22.40;1.00;;;;;;5023749;28;20205;-73
2023/08/04 11:59:27;;;;;;;4.25;1.75;;;22.40;1.00;;;;;;5024513;28;20226;-73
2023/08/04 12:02:08;;;;;;;2.33;1.70;;;22.40;1.00;;;;;;5024608;28;20202;-75
2023/08/04 12:04:34;;;;;;;3.03;1.70;;;22.40;1.00;;;;;;5023958;28;20190;-75
2023/08/04 12:07:06;;;;;;;3.47;1.65;;;22.10;1.00;;;;;;5021671;28;20364;-69
2023/08/04 12:09:33;;;;;;;3.22;1.58;;;22.20;1.00;;;;;;5023491;28;20179;-72
2023/08/04 12:11:59;;;;;;;3.30;2.05;;;22.20;1.00;;;;;;5023790;28;20772;-73
2023/08/04 12:14:25;;;;;;;3.30;1.52;;;22.20;1.00;;;;;;5022912;28;20186;-75
2023/08/04 12:16:55;;;;;;;2.30;1.40;;;22.30;1.00;;;;;;5022891;28;20214;-74
2023/08/04 12:19:22;;;;;;;5.10;1.38;;;22.50;1.00;;;;;;5023799;28;20642;-73
2023/08/04 12:21:50;;;;;;;3.42;1.88;;;22.60;1.00;;;;;;5022309;28;20580;-74
2023/08/04 12:24:16;;;;;;;5.25;2.03;;;22.80;1.00;;;;;;5023523;28;20698;-75
2023/08/04 12:26:42;;;;;;;2.42;1.90;;;23.20;1.00;;;;;;5022164;28;20580;-73
2023/08/04 12:29:09;;;;;;;2.28;1.70;;;23.60;1.00;;;;;;5024239;28;20194;-74
2023/08/04 12:31:35;;;;;;;3.33;1.65;;;23.70;1.00;;;;;;5024360;28;20210;-73
2023/08/04 12:34:02;;;;;;;2.38;1.25;;;23.80;1.00;;;;;;5023342;28;20229;-74
2023/08/04 12:36:27;;;;;;;4.20;1.50;;;23.80;1.00;;;;;;5021388;28;20194;-73
2023/08/04 12:38:53;;;;;;;2.15;1.38;;;23.70;1.00;;;;;;5023111;28;20582;-74
2023/08/04 12:41:19;;;;;;;3.65;1.70;;;23.70;1.00;;;;;;5023562;28;20194;-74
2023/08/04 12:43:44;;;;;;;1.90;1.17;;;23.70;1.00;;;;;;5023529;28;20198;-75
2023/08/04 12:46:10;;;;;;;1.60;1.20;;;23.70;1.00;;;;;;5022135;28;20261;-74
2023/08/04 12:48:36;;;;;;;3.08;1.27;;;23.80;1.00;;;;;;5023669;28;20282;-75
2023/08/04 12:51:02;;;;;;;1.38;1.13;;;24.00;1.00;;;;;;5023790;28;20282;-73
2023/08/04 12:53:27;;;;;;;3.25;1.52;;;24.20;1.00;;;;;;5023984;28;20591;-73
2023/08/04 12:55:53;;;;;;;1.40;1.20;;;24.30;1.00;;;;;;5026182;28;20190;-74
2023/08/04 12:58:18;;;;;;;2.53;1.27;;;24.50;1.00;;;;;;5027890;28;20199;-73
2023/08/04 13:00:44;;;;;;;1.50;1.30;;;24.30;1.00;;;;;;5027088;28;20187;-73
2023/08/04 13:03:10;;;;;;;2.60;1.42;;;24.20;1.00;;;;;;5027193;28;20672;-74
2023/08/04 13:05:38;;;;;;;1.85;1.40;;;24.30;1.00;;;;;;5026075;28;20210;-73
2023/08/04 13:08:03;;;;;;;2.10;1.45;;;24.10;1.00;;;;;;5027373;28;20211;-74